Time;durP1;ratioP1;P1;durP2;ratioP2;P2;SDS_P1;SDS_P2;PMS_P1;PMS_P2;Temp;Humidity;BMP_temperature;BMP_pressure;BME280_temperature;BME280_humidity;BME280_pressure;Samples;Min_cycle;Max_cycle;Signal;HPM_P1;HPM_P2
2023/04/18 00:00:58;;;;;;;23.67;13.48;;;6.80;99.90;;;;;;5058161;28;20056;-57
2023/04/18 00:03:28;;;;;;;21.88;13.80;;;6.80;99.90;;;;;;5060761;28;20045;-56
2023/04/18 00:05:56;;;;;;;24.10;13.35;;;6.70;99.90;;;;;;5055203;28;20049;-56
2023/04/18 00:08:24;;;;;;;23.20;13.38;;;6.60;99.90;;;;;;5064131;28;20044;-57
2023/04/18 00:10:52;;;;;;;24.42;13.05;;;6.60;99.90;;;;;;5057026;28;20044;-57
2023/04/18 00:13:20;;;;;;;27.48;14.80;;;6.50;99.90;;;;;;5055142;28;20045;-56
2023/04/18 00:15:48;;;;;;;21.13;12.68;;;6.60;99.90;;;;;;5047606;28;20041;-56
2023/04/18 00:18:16;;;;;;;22.77;14.55;;;6.50;99.90;;;;;;5053742;28;20048;-58
2023/04/18 00:20:44;;;;;;;22.40;11.82;;;6.50;99.90;;;;;;5061921;28;20048;-57
2023/04/18 00:23:13;;;;;;;21.33;13.17;;;6.50;99.90;;;;;;5062284;28;20044;-58
2023/04/18 00:25:41;;;;;;;20.48;11.68;;;6.40;99.90;;;;;;5067627;28;20049;-57
2023/04/18 00:28:09;;;;;;;21.40;13.00;;;6.40;99.90;;;;;;5066683;28;20040;-57
2023/04/18 00:30:36;;;;;;;20.10;11.27;;;3.50;99.90;;;;;;5066352;28;20040;-56
2023/04/18 00:33:04;;;;;;;20.42;11.93;;;6.40;99.90;;;;;;5054521;28;20044;-57
2023/04/18 00:35:32;;;;;;;21.35;11.60;;;6.30;99.90;;;;;;5028807;28;20049;-57
2023/04/18 00:37:59;;;;;;;16.67;10.00;;;6.30;99.90;;;;;;5033305;28;20056;-57
2023/04/18 00:40:27;;;;;;;18.15;10.45;;;6.30;99.90;;;;;;5029375;28;20060;-57
2023/04/18 00:42:55;;;;;;;20.27;11.85;;;6.20;99.90;;;;;;5049681;28;20044;-57
2023/04/18 00:45:22;;;;;;;20.80;12.38;;;6.30;99.90;;;;;;5049570;28;20049;-57
2023/04/18 00:47:50;;;;;;;21.20;12.25;;;6.20;99.90;;;;;;5046796;28;20064;-56
2023/04/18 00:50:18;;;;;;;19.33;11.52;;;6.20;99.90;;;;;;5025902;28;20052;-57
2023/04/18 00:52:46;;;;;;;17.85;10.52;;;6.20;99.90;;;;;;5029562;28;20051;-57
2023/04/18 00:55:14;;;;;;;19.58;11.00;;;6.10;99.90;;;;;;5023401;28;20056;-58
2023/04/18 00:57:42;;;;;;;22.95;11.32;;;6.10;99.90;;;;;;5050480;28;20052;-57
2023/04/18 01:00:11;;;;;;;22.60;11.40;;;6.00;99.90;;;;;;5048254;28;20056;-56
2023/04/18 01:02:39;;;;;;;24.38;12.65;;;6.00;99.90;;;;;;5022214;28;20100;-57
2023/04/18 01:05:07;;;;;;;18.02;10.38;;;6.00;99.90;;;;;;5009512;28;20512;-56
2023/04/18 01:07:40;;;;;;;23.40;11.82;;;5.90;99.90;;;;;;5011192;28;20056;-57
2023/04/18 01:10:09;;;;;;;20.30;10.80;;;5.90;99.90;;;;;;5031995;28;20048;-57
2023/04/18 01:12:37;;;;;;;20.27;10.63;;;5.90;99.90;;;;;;5046875;28;20052;-56
2023/04/18 01:15:05;;;;;;;19.65;10.02;;;5.90;99.90;;;;;;5032032;28;20044;-56
2023/04/18 01:17:38;;;;;;;;;;;5.90;99.90;;;;;;5022785;28;20065;-56
2023/04/18 01:20:06;;;;;;;21.27;11.32;;;5.90;99.90;;;;;;5011397;28;20349;-57
2023/04/18 01:22:34;;;;;;;17.35;10.40;;;;;;;;;;5035996;28;20056;-57
2023/04/18 01:25:07;;;;;;;22.20;10.88;;;6.20;99.90;;;;;;5013125;28;20060;-56
2023/04/18 01:27:34;;;;;;;19.98;10.93;;;6.20;99.90;;;;;;5005875;28;20393;-56
2023/04/18 01:30:02;;;;;;;18.50;10.43;;;6.30;99.90;;;;;;5012462;28;20045;-56
2023/04/18 01:32:31;;;;;;;18.20;10.57;;;6.30;99.90;;;;;;5044804;28;20048;-57
2023/04/18 01:34:59;;;;;;;21.75;11.20;;;6.40;99.90;;;;;;5043557;28;20488;-56
2023/04/18 01:37:27;;;;;;;24.17;11.45;;;6.40;99.90;;;;;;5020391;28;20390;-58
2023/04/18 01:39:54;;;;;;;20.63;11.95;;;6.50;99.90;;;;;;5033239;28;20045;-59
2023/04/18 01:42:22;;;;;;;19.40;11.55;;;6.60;99.90;;;;;;5033256;28;20041;-57
2023/04/18 01:44:49;;;;;;;19.77;11.15;;;6.60;99.90;;;;;;5051838;28;20056;-59
2023/04/18 01:47:17;;;;;;;24.25;12.23;;;6.70;99.90;;;;;;5032976;28;20439;-55
2023/04/18 01:49:47;;;;;;;25.38;10.50;;;6.60;99.90;;;;;;5035405;28;20056;-56
2023/04/18 01:52:14;;;;;;;21.17;10.45;;;6.70;99.90;;;;;;5034156;28;20396;-56
2023/04/18 01:54:42;;;;;;;22.92;12.05;;;6.70;99.90;;;;;;5051185;28;20041;-54
2023/04/18 01:57:10;;;;;;;23.13;12.00;;;6.80;99.90;;;;;;5033010;28;20045;-58
2023/04/18 01:59:37;;;;;;;21.40;11.18;;;6.80;99.90;;;;;;5033468;28;20468;-58
2023/04/18 02:02:05;;;;;;;21.95;11.48;;;6.80;99.90;;;;;;5035160;28;20040;-57
2023/04/18 02:04:33;;;;;;;22.83;11.45;;;6.80;99.90;;;;;;5015330;28;20041;-58
2023/04/18 02:07:01;;;;;;;21.25;11.68;;;6.90;99.90;;;;;;5015365;28;20049;-56
2023/04/18 02:09:28;;;;;;;19.17;10.38;;;6.80;99.90;;;;;;5033619;28;20052;-57
2023/04/18 02:11:58;;;;;;;23.80;12.07;;;6.90;99.90;;;;;;5051441;28;20045;-56
2023/04/18 02:14:26;;;;;;;21.85;11.52;;;6.90;99.90;;;;;;5016042;28;20497;-57
2023/04/18 02:16:59;;;;;;;21.25;11.13;;;6.80;99.90;;;;;;5020787;28;20041;-57
2023/04/18 02:19:29;;;;;;;25.48;11.98;;;6.90;99.90;;;;;;5038411;28;20049;-56
2023/04/18 02:21:56;;;;;;;28.45;13.45;;;6.80;99.90;;;;;;5048171;28;20041;-55
2023/04/18 02:24:24;;;;;;;22.45;11.65;;;6.90;99.90;;;;;;5050276;28;20048;-55
2023/04/18 02:26:52;;;;;;;26.38;12.80;;;6.90;99.90;;;;;;5022161;28;20201;-55
2023/04/18 02:29:19;;;;;;;25.55;11.68;;;6.90;99.90;;;;;;5014901;28;20044;-55
2023/04/18 02:31:47;;;;;;;28.50;12.77;;;6.90;99.90;;;;;;5029337;28;20037;-56
2023/04/18 02:34:15;;;;;;;26.30;11.88;;;6.90;99.90;;;;;;5029112;28;20399;-56
2023/04/18 02:36:42;;;;;;;26.85;13.20;;;6.90;99.90;;;;;;5055080;28;20033;-56
2023/04/18 02:39:10;;;;;;;27.67;13.82;;;6.90;99.90;;;;;;5071872;28;20040;-56
2023/04/18 02:41:38;;;;;;;26.00;13.10;;;6.90;99.90;;;;;;5071597;28;20056;-57
2023/04/18 02:44:07;;;;;;;28.48;13.68;;;7.00;99.90;;;;;;5053492;28;20053;-56
2023/04/18 02:46:37;;;;;;;31.33;15.43;;;7.00;99.90;;;;;;5065889;28;20037;-56
2023/04/18 02:49:08;;;;;;;26.70;14.35;;;7.00;99.90;;;;;;5067328;28;20064;-56
2023/04/18 02:51:35;;;;;;;32.63;13.95;;;7.10;99.90;;;;;;5065451;28;20049;-56
2023/04/18 02:54:04;;;;;;;28.30;14.63;;;7.10;99.90;;;;;;5067239;28;20052;-57
2023/04/18 02:56:46;;;;;;;30.35;14.60;;;7.20;99.90;;;;;;5069603;28;20047;-56
2023/04/18 02:59:38;;;;;;;27.42;13.60;;;7.10;99.90;;;;;;5050990;28;20041;-56
2023/04/18 03:02:06;;;;;;;33.17;14.00;;;7.20;99.90;;;;;;5060247;28;20377;-55
2023/04/18 03:04:35;;;;;;;30.30;14.20;;;7.20;99.90;;;;;;5050666;28;20041;-55
2023/04/18 03:07:05;;;;;;;30.13;14.05;;;7.20;99.90;;;;;;5052581;28;20059;-56
2023/04/18 03:09:36;;;;;;;31.02;14.77;;;7.10;99.90;;;;;;5061135;28;20045;-56
2023/04/18 03:12:13;;;;;;;27.95;13.75;;;7.20;99.90;;;;;;5069259;28;20049;-56
2023/04/18 03:14:43;;;;;;;32.15;14.75;;;7.20;99.90;;;;;;5077381;28;20052;-56
2023/04/18 03:17:12;;;;;;;28.42;13.90;;;7.20;99.90;;;;;;5054379;28;20039;-56
2023/04/18 03:19:45;;;;;;;30.42;14.48;;;7.20;99.90;;;;;;5066774;28;20044;-56
2023/04/18 03:22:15;;;;;;;27.30;13.20;;;7.30;99.90;;;;;;5069810;28;20041;-56
2023/04/18 03:24:50;;;;;;;32.35;14.32;;;7.30;99.90;;;;;;5058308;28;20040;-54
2023/04/18 03:27:19;;;;;;;27.60;14.63;;;7.30;99.90;;;;;;5069016;28;20040;-55
2023/04/18 03:29:47;;;;;;;32.05;14.48;;;7.30;99.90;;;;;;5070121;28;20051;-55
2023/04/18 03:32:16;;;;;;;29.95;13.80;;;7.30;99.90;;;;;;5070328;28;20521;-55
2023/04/18 03:34:44;;;;;;;29.05;14.57;;;7.30;99.90;;;;;;5059904;28;20049;-55
2023/04/18 03:37:11;;;;;;;29.25;15.18;;;7.30;99.90;;;;;;5071231;28;20055;-55
2023/04/18 03:39:45;;;;;;;31.35;14.45;;;7.40;99.90;;;;;;5061426;28;20033;-55
2023/04/18 03:42:13;;;;;;;27.52;14.05;;;7.40;99.90;;;;;;5049994;28;20052;-56
2023/04/18 03:44:42;;;;;;;28.00;13.80;;;7.40;99.90;;;;;;5054769;28;20070;-56
2023/04/18 03:47:10;;;;;;;28.70;14.00;;;7.40;99.90;;;;;;5060678;28;20044;-56
2023/04/18 03:49:41;;;;;;;32.67;14.98;;;7.50;99.90;;;;;;5069804;28;20037;-55
2023/04/18 03:52:09;;;;;;;28.23;14.02;;;7.50;99.90;;;;;;5062041;28;20033;-56
2023/04/18 03:54:36;;;;;;;32.95;15.02;;;7.50;99.90;;;;;;5067204;28;20049;-55
2023/04/18 03:57:04;;;;;;;31.77;14.77;;;7.50;99.90;;;;;;5069909;28;20048;-56
2023/04/18 03:59:34;;;;;;;32.65;15.65;;;7.50;99.90;;;;;;5063571;28;20052;-55
2023/04/18 04:02:02;;;;;;;28.80;14.30;;;7.50;99.90;;;;;;5071169;28;20048;-56
2023/04/18 04:04:30;;;;;;;31.25;14.20;;;7.50;99.90;;;;;;5054875;28;20045;-55
2023/04/18 04:06:59;;;;;;;30.27;13.95;;;7.50;99.90;;;;;;5067692;28;20123;-56
2023/04/18 04:09:26;;;;;;;28.95;13.98;;;7.60;99.90;;;;;;5060961;28;20610;-56
2023/04/18 04:11:54;;;;;;;31.50;14.68;;;7.50;99.90;;;;;;5062975;28;20052;-55
2023/04/18 04:14:23;;;;;;;35.85;15.35;;;7.50;99.90;;;;;;5065960;28;20585;-54
2023/04/18 04:16:52;;;;;;;32.65;14.52;;;7.60;99.90;;;;;;5067916;28;20107;-54
2023/04/18 04:19:20;;;;;;;33.42;14.43;;;7.60;99.90;;;;;;5053719;28;20044;-55
2023/04/18 04:21:56;;;;;;;36.00;16.05;;;7.60;99.90;;;;;;5053400;28;20049;-56
2023/04/18 04:24:24;;;;;;;34.17;15.55;;;7.60;99.90;;;;;;5065451;28;20044;-56
2023/04/18 04:26:52;;;;;;;32.13;15.00;;;7.60;99.90;;;;;;5074471;28;20048;-56
2023/04/18 04:29:23;;;;;;;33.42;15.23;;;7.60;99.90;;;;;;5072667;28;20059;-55
2023/04/18 04:31:52;;;;;;;37.23;16.97;;;7.60;99.90;;;;;;5072661;28;20495;-56
2023/04/18 04:34:30;;;;;;;30.95;15.98;;;7.70;99.90;;;;;;5058843;28;20060;-55
2023/04/18 04:37:00;;;;;;;36.17;15.82;;;7.70;99.90;;;;;;5053968;28;20060;-57
2023/04/18 04:39:29;;;;;;;;;;;7.60;99.90;;;;;;5073603;28;20036;-56
2023/04/18 04:42:12;;;;;;;39.42;16.60;;;7.70;99.90;;;;;;5053189;28;19921;-56
2023/04/18 04:44:52;;;;;;;35.85;15.23;;;7.60;99.90;;;;;;5055036;28;20048;-56
2023/04/18 04:47:21;;;;;;;36.72;16.42;;;7.70;99.90;;;;;;5049485;28;20044;-56
2023/04/18 04:49:49;;;;;;;41.45;17.27;;;7.70;99.90;;;;;;5057569;28;20048;-56
2023/04/18 04:52:16;;;;;;;40.67;15.93;;;7.60;99.90;;;;;;5065985;28;20055;-56
2023/04/18 04:54:45;;;;;;;44.97;16.33;;;7.60;99.90;;;;;;5055370;28;20060;-55
2023/04/18 04:57:15;;;;;;;46.15;18.55;;;7.60;99.90;;;;;;5054402;28;20043;-56
2023/04/18 04:59:44;;;;;;;39.30;16.83;;;7.60;99.90;;;;;;5069667;28;20048;-56
2023/04/18 05:02:12;;;;;;;46.17;17.17;;;7.50;99.90;;;;;;5062628;28;20052;-54
2023/04/18 05:04:40;;;;;;;39.33;15.68;;;7.60;99.90;;;;;;5076062;28;20040;-56
2023/04/18 05:07:08;;;;;;;45.00;17.02;;;7.50;99.90;;;;;;5047446;28;20045;-56
2023/04/18 05:09:38;;;;;;;43.47;17.25;;;7.50;99.90;;;;;;5057951;28;20534;-56
2023/04/18 05:12:06;;;;;;;48.05;17.48;;;7.50;99.90;;;;;;5065961;28;20040;-55
2023/04/18 05:14:35;;;;;;;58.50;20.58;;;7.50;99.90;;;;;;5061047;28;20082;-56
2023/04/18 05:17:02;;;;;;;48.33;18.35;;;7.50;99.90;;;;;;5067043;28;20037;-56
2023/04/18 05:19:30;;;;;;;50.45;17.75;;;7.60;99.90;;;;;;5053629;28;20044;-56
2023/04/18 05:21:58;;;;;;;50.63;18.10;;;7.50;99.90;;;;;;5067375;28;20048;-54
2023/04/18 05:24:25;;;;;;;52.95;18.30;;;7.60;99.90;;;;;;5068705;28;20071;-55
2023/04/18 05:26:53;;;;;;;57.33;19.40;;;7.60;99.90;;;;;;5066737;28;20511;-55
2023/04/18 05:29:21;;;;;;;55.55;21.35;;;7.60;99.90;;;;;;5046274;28;20056;-55
2023/04/18 05:31:48;;;;;;;64.18;19.85;;;7.50;99.90;;;;;;5064154;28;20037;-56
2023/04/18 05:34:19;;;;;;;64.70;21.00;;;7.60;99.90;;;;;;5052580;28;20041;-55
2023/04/18 05:36:47;;;;;;;64.20;20.20;;;7.50;99.90;;;;;;5048161;28;20071;-56
2023/04/18 05:39:15;;;;;;;51.88;19.20;;;7.60;99.90;;;;;;5048713;28;20074;-57
2023/04/18 05:41:43;;;;;;;58.60;21.20;;;7.60;99.90;;;;;;5044087;28;20068;-55
2023/04/18 05:44:10;;;;;;;54.85;19.02;;;7.50;99.90;;;;;;5039935;28;20045;-55
2023/04/18 05:46:38;;;;;;;53.88;17.92;;;7.50;99.90;;;;;;5035694;28;20381;-56
2023/04/18 05:49:06;;;;;;;54.67;19.65;;;7.60;99.90;;;;;;5036270;28;20065;-54
2023/04/18 05:51:33;;;;;;;55.55;19.50;;;7.60;99.90;;;;;;5027754;28;20393;-55
2023/04/18 05:54:01;;;;;;;48.33;17.85;;;7.70;99.90;;;;;;5037493;28;20049;-54
2023/04/18 05:56:29;;;;;;;49.45;19.88;;;7.60;99.90;;;;;;5045021;28;20041;-56
2023/04/18 05:58:57;;;;;;;50.60;17.60;;;7.70;99.90;;;;;;5038657;28;20061;-57
2023/04/18 06:01:27;;;;;;;49.60;18.05;;;8.10;99.90;;;;;;5045860;28;20060;-56
2023/04/18 06:03:55;;;;;;;49.28;18.05;;;7.70;99.90;;;;;;5044902;28;20484;-56
2023/04/18 06:06:23;;;;;;;48.60;18.83;;;7.70;99.90;;;;;;5047105;28;20515;-56
2023/04/18 06:08:51;;;;;;;45.28;17.33;;;7.70;99.90;;;;;;5047491;28;20048;-55
2023/04/18 06:11:21;;;;;;;59.63;20.20;;;7.70;99.90;;;;;;5041291;28;20041;-56
2023/04/18 06:13:49;;;;;;;40.95;16.95;;;7.80;99.90;;;;;;5024348;28;20524;-57
2023/04/18 06:16:16;;;;;;;42.47;17.92;;;7.80;99.90;;;;;;5048777;28;20049;-56
2023/04/18 06:18:44;;;;;;;41.30;16.67;;;7.80;99.90;;;;;;5040283;28;20045;-55
2023/04/18 06:21:12;;;;;;;42.75;18.33;;;7.90;99.90;;;;;;5035364;28;20049;-56
2023/04/18 06:23:40;;;;;;;42.83;18.10;;;7.90;99.90;;;;;;5041119;28;20399;-57
2023/04/18 06:26:08;;;;;;;41.05;16.10;;;7.90;99.90;;;;;;5034993;28;20061;-55
2023/04/18 06:28:35;;;;;;;36.45;15.18;;;8.00;99.90;;;;;;5024138;28;20049;-56
2023/04/18 06:31:03;;;;;;;32.47;14.18;;;8.00;99.90;;;;;;5043739;28;20045;-55
2023/04/18 06:33:32;;;;;;;33.65;14.52;;;8.10;99.90;;;;;;5039754;28;20127;-57
2023/04/18 06:36:00;;;;;;;31.08;14.55;;;8.10;99.90;;;;;;5046650;28;20045;-56
2023/04/18 06:38:27;;;;;;;36.90;15.90;;;8.10;99.90;;;;;;5045421;28;20053;-55
2023/04/18 06:40:55;;;;;;;29.30;13.95;;;8.10;99.90;;;;;;5043245;28;20059;-55
2023/04/18 06:43:23;;;;;;;32.47;13.73;;;8.20;99.90;;;;;;5036182;28;20056;-56
2023/04/18 06:45:50;;;;;;;28.70;12.90;;;8.10;99.90;;;;;;5047343;28;20060;-55
2023/04/18 06:48:18;;;;;;;28.05;13.68;;;8.20;99.90;;;;;;5042327;28;20052;-55
2023/04/18 06:50:46;;;;;;;28.20;13.85;;;8.20;99.90;;;;;;5025595;28;20045;-55
2023/04/18 06:53:13;;;;;;;29.73;13.20;;;8.20;99.90;;;;;;5037820;28;20041;-55
2023/04/18 06:55:41;;;;;;;33.47;13.10;;;8.30;99.90;;;;;;5016194;28;20048;-55
2023/04/18 06:58:09;;;;;;;28.20;12.40;;;8.30;99.90;;;;;;5025413;28;20053;-56
2023/04/18 07:00:36;;;;;;;24.45;11.77;;;8.40;99.90;;;;;;5037615;28;20041;-56
2023/04/18 07:03:11;;;;;;;28.52;11.23;;;8.50;99.90;;;;;;5020219;28;20045;-56
2023/04/18 07:05:40;;;;;;;27.23;12.20;;;8.50;99.90;;;;;;5044891;28;20041;-55
2023/04/18 07:08:07;;;;;;;25.73;11.90;;;8.50;99.90;;;;;;5043851;28;20041;-56
2023/04/18 07:10:35;;;;;;;23.23;11.57;;;8.40;99.90;;;;;;5041166;28;20235;-55
2023/04/18 07:13:03;;;;;;;31.65;11.77;;;8.40;99.90;;;;;;5039794;28;20152;-55
2023/04/18 07:15:33;;;;;;;25.25;10.82;;;8.40;99.90;;;;;;5010673;28;20041;-56
2023/04/18 07:18:01;;;;;;;26.35;11.98;;;8.40;99.90;;;;;;5041697;28;20057;-56
2023/04/18 07:20:29;;;;;;;28.27;12.90;;;8.40;99.90;;;;;;5044589;28;20056;-55
2023/04/18 07:22:56;;;;;;;25.80;12.55;;;8.40;99.90;;;;;;5039910;28;20041;-54
2023/04/18 07:25:24;;;;;;;29.48;13.43;;;8.40;99.90;;;;;;5013438;28;20037;-54
2023/04/18 07:27:52;;;;;;;28.33;13.05;;;8.40;99.90;;;;;;5037407;28;20397;-55
2023/04/18 07:30:19;;;;;;;34.45;14.63;;;8.40;99.90;;;;;;5021946;28;20037;-56
2023/04/18 07:32:47;;;;;;;37.63;14.40;;;8.30;99.90;;;;;;5022275;28;20041;-55
2023/04/18 07:35:15;;;;;;;31.15;13.45;;;8.30;99.90;;;;;;5029688;28;20393;-56
2023/04/18 07:37:43;;;;;;;29.25;11.60;;;8.30;99.90;;;;;;5040145;28;20056;-56
2023/04/18 07:40:11;;;;;;;33.42;14.43;;;8.30;99.90;;;;;;5047470;28;20057;-56
2023/04/18 07:42:39;;;;;;;31.48;14.77;;;8.30;99.90;;;;;;5029790;28;20045;-56
2023/04/18 07:45:07;;;;;;;32.92;13.95;;;8.40;99.90;;;;;;5029191;28;20057;-56
2023/04/18 07:47:35;;;;;;;30.70;13.88;;;8.60;99.90;;;;;;5044599;28;20127;-54
2023/04/18 07:50:03;;;;;;;36.88;16.65;;;8.60;99.90;;;;;;5029016;28;20049;-55
2023/04/18 07:52:30;;;;;;;26.90;13.48;;;8.80;99.90;;;;;;5042819;28;20072;-56
2023/04/18 07:55:01;;;;;;;37.88;14.30;;;8.80;99.90;;;;;;5042133;28;20037;-56
2023/04/18 07:57:30;;;;;;;28.75;13.75;;;8.90;99.90;;;;;;5051590;28;20053;-56
2023/04/18 07:59:57;;;;;;;31.85;13.88;;;9.00;99.90;;;;;;5039054;28;20048;-56
2023/04/18 08:02:25;;;;;;;34.00;14.20;;;9.00;99.90;;;;;;5046827;28;20072;-55
2023/04/18 08:04:54;;;;;;;35.22;15.40;;;9.00;99.90;;;;;;5040162;28;20045;-55
2023/04/18 08:07:22;;;;;;;34.13;15.20;;;9.00;99.90;;;;;;5041833;28;20068;-56
2023/04/18 08:09:50;;;;;;;35.13;16.15;;;9.00;99.90;;;;;;5046047;28;20048;-55
2023/04/18 08:12:18;;;;;;;37.58;15.38;;;9.00;99.90;;;;;;5029724;28;20231;-55
2023/04/18 08:14:46;;;;;;;35.70;16.08;;;9.10;99.90;;;;;;5031978;28;20056;-56
2023/04/18 08:17:13;;;;;;;32.35;14.80;;;9.10;99.90;;;;;;5038183;28;20216;-55
2023/04/18 08:19:43;;;;;;;32.80;16.63;;;9.10;99.90;;;;;;5047603;28;20403;-56
2023/04/18 08:22:10;;;;;;;34.63;15.82;;;9.10;99.90;;;;;;5044463;28;20046;-56
2023/04/18 08:24:38;;;;;;;34.40;16.42;;;9.20;99.90;;;;;;5048803;28;20064;-57
2023/04/18 08:27:09;;;;;;;39.13;16.40;;;;;;;;;;5050397;28;20053;-56
2023/04/18 08:29:37;;;;;;;32.08;14.75;;;9.40;99.90;;;;;;5048796;28;20496;-57
2023/04/18 08:32:07;;;;;;;33.15;15.00;;;9.50;99.90;;;;;;5033084;28;20045;-55
2023/04/18 08:34:36;;;;;;;31.52;14.10;;;9.60;99.90;;;;;;5031230;28;20061;-57
2023/04/18 08:37:06;;;;;;;33.45;13.98;;;9.70;99.90;;;;;;5051439;28;20504;-55
2023/04/18 08:39:34;;;;;;;32.13;14.30;;;9.80;99.90;;;;;;5069227;28;20479;-56
2023/04/18 08:42:05;;;;;;;29.38;14.07;;;9.90;99.90;;;;;;5061902;28;20524;-55
2023/04/18 08:44:33;;;;;;;30.52;15.00;;;9.90;99.90;;;;;;5056468;28;20045;-55
2023/04/18 08:47:00;;;;;;;31.50;14.00;;;10.00;99.90;;;;;;5050941;28;20393;-56
2023/04/18 08:49:30;;;;;;;28.42;14.20;;;10.00;99.90;;;;;;5055218;28;20059;-57
2023/04/18 08:52:00;;;;;;;27.00;13.45;;;10.10;99.90;;;;;;5063911;28;20045;-57
2023/04/18 08:54:29;;;;;;;32.40;14.60;;;10.20;99.90;;;;;;5056790;28;20041;-55
2023/04/18 08:57:07;;;;;;;25.70;12.30;;;10.20;99.90;;;;;;5053206;28;20045;-56
2023/04/18 08:59:35;;;;;;;27.63;12.75;;;10.30;99.90;;;;;;5065030;28;20048;-55
2023/04/18 09:02:07;;;;;;;25.75;13.30;;;10.40;99.90;;;;;;5064014;28;20056;-56
2023/04/18 09:04:44;;;;;;;27.30;12.95;;;10.50;99.90;;;;;;5062284;28;20428;-56
2023/04/18 09:07:14;;;;;;;25.08;12.15;;;10.70;99.90;;;;;;5064940;28;20064;-56
2023/04/18 09:09:43;;;;;;;;;;;10.80;99.90;;;;;;5053124;28;20045;-56
2023/04/18 09:12:31;;;;;;;28.10;13.43;;;10.90;99.90;;;;;;5050798;28;20398;-56
2023/04/18 09:15:13;;;;;;;24.02;11.18;;;11.00;99.90;;;;;;5061042;28;20484;-56
2023/04/18 09:17:49;;;;;;;25.58;12.07;;;11.10;99.90;;;;;;5060377;28;20060;-58
2023/04/18 09:20:29;;;;;;;24.92;12.20;;;11.20;99.90;;;;;;5069735;28;20049;-55
2023/04/18 09:22:59;;;;;;;22.27;10.70;;;11.40;99.90;;;;;;5059555;28;20049;-57
2023/04/18 09:25:33;;;;;;;25.48;10.95;;;11.50;99.90;;;;;;5050263;28;20060;-56
2023/04/18 09:28:19;;;;;;;20.60;10.43;;;11.50;99.90;;;;;;5062723;28;20052;-56
2023/04/18 09:30:50;;;;;;;18.95;9.95;;;11.70;99.90;;;;;;5070062;28;20067;-55
2023/04/18 09:33:26;;;;;;;18.13;9.45;;;11.70;99.90;;;;;;5067189;28;20597;-55
2023/04/18 09:35:56;;;;;;;18.40;10.13;;;11.80;99.90;;;;;;5068090;28;20048;-56
2023/04/18 09:38:39;;;;;;;20.10;10.02;;;11.90;99.90;;;;;;5064271;28;20048;-57
2023/04/18 09:41:09;;;;;;;16.52;9.88;;;11.90;99.90;;;;;;5069103;28;20044;-54
2023/04/18 09:43:37;;;;;;;19.55;9.38;;;12.00;99.90;;;;;;5066343;28;20707;-56
2023/04/18 09:46:06;;;;;;;16.65;8.77;;;12.10;99.90;;;;;;5062121;28;20052;-57
2023/04/18 09:48:35;;;;;;;16.85;9.88;;;12.30;99.90;;;;;;5064625;28;20564;-57
2023/04/18 09:51:11;;;;;;;19.65;9.48;;;12.40;99.90;;;;;;5069672;28;20056;-57
2023/04/18 09:53:40;;;;;;;14.07;8.35;;;12.50;99.90;;;;;;5068430;28;20044;-55
2023/04/18 09:56:13;;;;;;;18.17;9.03;;;12.50;99.90;;;;;;5062438;28;20044;-56
2023/04/18 09:58:42;;;;;;;19.27;8.57;;;12.70;99.90;;;;;;5056580;28;20053;-57
2023/04/18 10:01:12;;;;;;;13.93;8.45;;;12.70;99.90;;;;;;5067532;28;20051;-56
2023/04/18 10:03:45;;;;;;;21.42;9.20;;;12.80;99.90;;;;;;5068198;28;20049;-56
2023/04/18 10:06:16;;;;;;;16.15;8.10;;;12.90;99.90;;;;;;5065711;28;20052;-56
2023/04/18 10:08:46;;;;;;;15.70;8.50;;;13.00;99.90;;;;;;5067045;28;20052;-56
2023/04/18 10:11:14;;;;;;;17.92;8.88;;;13.10;99.90;;;;;;5067236;28;20052;-57
2023/04/18 10:13:46;;;;;;;13.27;7.28;;;13.40;99.90;;;;;;5058484;28;20041;-56
2023/04/18 10:16:15;;;;;;;15.65;7.38;;;13.40;99.90;;;;;;5062850;28;20525;-56
2023/04/18 10:18:43;;;;;;;17.00;6.77;;;13.50;99.90;;;;;;5062781;28;20056;-56
2023/04/18 10:21:11;;;;;;;13.85;6.68;;;13.60;99.90;;;;;;5069255;28;20048;-57
2023/04/18 10:23:39;;;;;;;15.77;6.15;;;13.70;99.90;;;;;;5054401;28;20040;-57
2023/04/18 10:26:08;;;;;;;19.05;6.63;;;13.70;99.90;;;;;;5064836;28;20577;-57
2023/04/18 10:28:56;;;;;;;11.40;7.03;;;13.80;99.90;;;;;;5055806;28;20052;-57
2023/04/18 10:31:27;;;;;;;16.75;7.25;;;13.80;99.90;;;;;;5064677;28;20044;-56
2023/04/18 10:34:00;;;;;;;15.50;6.82;;;13.90;99.90;;;;;;5066696;28;20060;-56
2023/04/18 10:37:04;;;;;;;11.77;6.43;;;14.00;99.90;;;;;;5051990;28;20053;-57
2023/04/18 10:39:46;;;;;;;13.68;6.28;;;14.10;99.90;;;;;;5063933;28;20044;-57
2023/04/18 10:42:15;;;;;;;17.13;7.18;;;14.30;99.90;;;;;;5059430;28;20507;-59
2023/04/18 10:45:22;;;;;;;11.25;5.97;;;14.40;99.90;;;;;;5055181;28;20037;-57
2023/04/18 10:48:28;;;;;;;10.20;6.57;;;14.50;99.90;;;;;;5059619;28;20053;-57
2023/04/18 10:51:19;;;;;;;11.23;6.38;;;14.60;99.90;;;;;;5064697;28;20033;-57
2023/04/18 10:53:51;;;;;;;13.90;6.78;;;14.70;99.90;;;;;;5052409;28;20049;-56
2023/04/18 10:56:19;;;;;;;13.48;6.15;;;14.70;99.90;;;;;;5059782;28;20041;-57
2023/04/18 10:58:51;;;;;;;15.05;7.22;;;14.80;99.70;;;;;;5063131;28;20061;-57
2023/04/18 11:01:28;;;;;;;12.10;6.32;;;14.90;99.80;;;;;;5063706;28;20052;-56
2023/04/18 11:03:59;;;;;;;15.85;6.85;;;15.00;98.20;;;;;;5067610;28;20192;-56
2023/04/18 11:06:27;;;;;;;13.75;7.53;;;15.00;94.80;;;;;;5068298;28;20048;-58
2023/04/18 11:09:13;;;;;;;14.82;7.28;;;15.00;95.30;;;;;;5065021;28;20045;-58
2023/04/18 11:11:42;;;;;;;12.35;6.20;;;14.90;95.90;;;;;;5059437;28;20048;-58
2023/04/18 11:14:09;;;;;;;16.95;8.27;;;14.90;94.30;;;;;;5051720;28;20053;-57
2023/04/18 11:16:38;;;;;;;19.45;6.97;;;14.90;94.90;;;;;;5047981;28;20053;-56
2023/04/18 11:19:20;;;;;;;14.88;7.07;;;15.00;95.40;;;;;;5061264;28;20048;-55
2023/04/18 11:21:48;;;;;;;17.08;6.20;;;15.20;96.10;;;;;;5050759;28;20063;-55
2023/04/18 11:24:23;;;;;;;21.55;10.23;;;15.20;96.00;;;;;;5053519;28;20123;-56
2023/04/18 11:26:54;;;;;;;18.50;8.07;;;15.30;96.30;;;;;;5058959;28;20063;-57
2023/04/18 11:29:22;;;;;;;12.70;7.22;;;15.40;96.80;;;;;;5059382;28;20037;-57
2023/04/18 11:31:52;;;;;;;20.02;9.32;;;15.60;97.30;;;;;;5066632;28;20388;-57
2023/04/18 11:34:29;;;;;;;11.75;7.28;;;15.90;96.30;;;;;;5053392;28;20056;-58
2023/04/18 11:36:59;;;;;;;14.82;7.65;;;15.80;96.40;;;;;;5011149;28;20484;-57
2023/04/18 11:39:27;;;;;;;18.65;6.72;;;16.00;95.40;;;;;;5041750;28;20067;-57
2023/04/18 11:41:58;;;;;;;18.80;6.63;;;16.10;92.10;;;;;;5034825;28;20532;-56
2023/04/18 11:44:28;;;;;;;12.85;6.85;;;16.30;84.30;;;;;;5042529;28;20053;-57
2023/04/18 11:46:56;;;;;;;;;;;16.40;85.90;;;;;;5030260;28;20056;-57
2023/04/18 11:49:28;;;;;;;14.30;6.70;;;16.50;84.60;;;;;;5030665;28;19937;-55
2023/04/18 11:51:56;;;;;;;16.48;7.78;;;16.60;84.00;;;;;;5016505;28;20124;-55
2023/04/18 11:54:43;;;;;;;17.10;7.70;;;16.70;87.50;;;;;;5028451;28;20045;-57
2023/04/18 11:57:29;;;;;;;15.15;7.60;;;16.80;85.00;;;;;;5029125;28;20045;-57
2023/04/18 11:59:59;;;;;;;13.40;7.20;;;16.90;85.10;;;;;;5037709;28;20477;-57
2023/04/18 12:02:41;;;;;;;14.20;8.40;;;17.10;85.70;;;;;;5029880;28;20049;-57
2023/04/18 12:05:12;;;;;;;16.73;7.63;;;17.30;86.30;;;;;;5038030;28;20048;-58
2023/04/18 12:07:44;;;;;;;13.80;7.47;;;17.40;87.00;;;;;;5047218;28;20049;-58
2023/04/18 12:10:30;;;;;;;15.13;8.77;;;17.60;86.10;;;;;;5033217;28;20072;-58
2023/04/18 12:13:01;;;;;;;19.13;9.40;;;17.70;81.40;;;;;;5036310;28;20052;-58
2023/04/18 12:15:30;;;;;;;14.35;8.15;;;;;;;;;;5040832;28;20507;-56
2023/04/18 12:18:04;;;;;;;13.85;8.65;;;17.80;82.50;;;;;;5028659;28;20045;-60
2023/04/18 12:20:37;;;;;;;10.85;7.80;;;17.90;85.00;;;;;;5032647;28;20551;-57
2023/04/18 12:23:06;;;;;;;14.00;7.72;;;18.10;84.40;;;;;;5035807;28;20037;-57
2023/04/18 12:25:35;;;;;;;11.70;7.25;;;18.30;82.70;;;;;;5035399;28;20048;-56
2023/04/18 12:28:18;;;;;;;21.17;8.18;;;18.40;81.80;;;;;;5035724;28;20484;-56
2023/04/18 12:30:46;;;;;;;13.38;7.68;;;18.40;79.50;;;;;;5000512;28;20054;-57
2023/04/18 12:33:13;;;;;;;13.85;7.53;;;18.30;81.30;;;;;;5032438;28;20040;-57
2023/04/18 12:35:41;;;;;;;12.82;7.43;;;18.30;81.90;;;;;;5027121;28;20411;-57
2023/04/18 12:38:09;;;;;;;14.45;7.10;;;18.30;82.30;;;;;;5038593;28;20041;-57
2023/04/18 12:40:40;;;;;;;12.93;7.13;;;18.40;79.70;;;;;;5048336;28;20500;-58
2023/04/18 12:43:08;;;;;;;12.75;7.15;;;18.70;82.90;;;;;;5041951;28;20053;-58
2023/04/18 12:45:36;;;;;;;14.70;7.05;;;18.80;80.20;;;;;;5032927;28;20408;-59
2023/04/18 12:48:03;;;;;;;12.85;6.20;;;18.80;79.80;;;;;;5038070;28;20519;-60
2023/04/18 12:50:31;;;;;;;12.25;5.75;;;18.70;78.20;;;;;;5031656;28;20042;-56
2023/04/18 12:53:00;;;;;;;15.02;5.90;;;18.70;77.60;;;;;;5036242;28;20037;-58